sensor_id;sensor_type;location;lat;lon;timestamp;pressure;altitude;pressure_sealevel;temperature;humidity
31337;BME280;22846;42.654;23.314;2022-08-02T00:01:19;94346.78;;;27.33;33.47
31337;BME280;22846;42.654;23.314;2022-08-02T00:03:44;94347.22;;;27.32;33.44
31337;BME280;22846;42.654;23.314;2022-08-02T00:06:09;94357.44;;;27.32;33.17
31337;BME280;22846;42.654;23.314;2022-08-02T00:08:35;94353.94;;;27.31;33.55
31337;BME280;22846;42.654;23.314;2022-08-02T00:11:00;94353.94;;;27.31;33.30
31337;BME280;22846;42.654;23.314;2022-08-02T00:13:26;94349.69;;;27.30;33.55
31337;BME280;22846;42.654;23.314;2022-08-02T00:15:51;94336.72;;;27.31;33.16
31337;BME280;22846;42.654;23.314;2022-08-02T00:18:16;94340.69;;;27.30;33.51
31337;BME280;22846;42.654;23.314;2022-08-02T00:20:42;94340.38;;;27.28;33.40
31337;BME280;22846;42.654;23.314;2022-08-02T00:23:08;94336.09;;;27.27;33.13
31337;BME280;22846;42.654;23.314;2022-08-02T00:25:33;94340.38;;;27.28;33.00
31337;BME280;22846;42.654;23.314;2022-08-02T00:27:58;94336.88;;;27.27;33.17
31337;BME280;22846;42.654;23.314;2022-08-02T00:30:24;94338.09;;;27.26;33.42
31337;BME280;22846;42.654;23.314;2022-08-02T00:32:49;94339.31;;;27.25;33.27
31337;BME280;22846;42.654;23.314;2022-08-02T00:35:15;94340.09;;;27.26;33.05
31337;BME280;22846;42.654;23.314;2022-08-02T00:37:40;94331.09;;;27.25;33.34
31337;BME280;22846;42.654;23.314;2022-08-02T00:40:07;94331.56;;;27.24;33.43
31337;BME280;22846;42.654;23.314;2022-08-02T00:42:33;94331.56;;;27.24;33.33
31337;BME280;22846;42.654;23.314;2022-08-02T00:44:59;94335.84;;;27.25;33.34
31337;BME280;22846;42.654;23.314;2022-08-02T00:47:24;94332.31;;;27.24;33.30
31337;BME280;22846;42.654;23.314;2022-08-02T00:49:49;94335.53;;;27.23;33.28
31337;BME280;22846;42.654;23.314;2022-08-02T00:52:15;94334.31;;;27.24;33.47
31337;BME280;22846;42.654;23.314;2022-08-02T00:54:40;94328.03;;;27.23;33.54
31337;BME280;22846;42.654;23.314;2022-08-02T00:57:06;94334.75;;;27.22;33.60
31337;BME280;22846;42.654;23.314;2022-08-02T00:59:31;94332.00;;;27.22;33.50
31337;BME280;22846;42.654;23.314;2022-08-02T01:01:57;94327.78;;;27.21;33.59
31337;BME280;22846;42.654;23.314;2022-08-02T01:04:22;94332.47;;;27.21;33.11
31337;BME280;22846;42.654;23.314;2022-08-02T01:06:48;94323.50;;;27.20;33.15
31337;BME280;22846;42.654;23.314;2022-08-02T01:09:13;94318.75;;;27.21;32.90
31337;BME280;22846;42.654;23.314;2022-08-02T01:11:39;94330.94;;;27.20;32.88
31337;BME280;22846;42.654;23.314;2022-08-02T01:14:10;94330.22;;;27.19;32.82
31337;BME280;22846;42.654;23.314;2022-08-02T01:17:02;94320.75;;;27.20;32.69
31337;BME280;22846;42.654;23.314;2022-08-02T01:19:55;94320.28;;;27.22;32.95
31337;BME280;22846;42.654;23.314;2022-08-02T01:22:45;94316.00;;;27.21;33.31
31337;BME280;22846;42.654;23.314;2022-08-02T01:30:43;94321.19;;;27.19;34.26
31337;BME280;22846;42.654;23.314;2022-08-02T01:33:16;94299.63;;;27.03;34.57
31337;BME280;22846;42.654;23.314;2022-08-02T01:35:44;94335.84;;;27.16;34.83
31337;BME280;22846;42.654;23.314;2022-08-02T01:38:32;94331.59;;;27.15;35.51
31337;BME280;22846;42.654;23.314;2022-08-02T01:40:59;94330.97;;;27.11;35.26
31337;BME280;22846;42.654;23.314;2022-08-02T01:43:27;94331.31;;;27.04;35.41
31337;BME280;22846;42.654;23.314;2022-08-02T01:45:55;94332.66;;;26.99;35.60
31337;BME280;22846;42.654;23.314;2022-08-02T01:48:23;94329.34;;;26.95;35.75
31337;BME280;22846;42.654;23.314;2022-08-02T01:50:50;94340.00;;;26.93;35.78
31337;BME280;22846;42.654;23.314;2022-08-02T01:53:17;94340.91;;;26.90;36.04
31337;BME280;22846;42.654;23.314;2022-08-02T01:55:49;94339.06;;;26.87;35.96
31337;BME280;22846;42.654;23.314;2022-08-02T01:58:18;94346.25;;;26.85;36.27
31337;BME280;22846;42.654;23.314;2022-08-02T02:00:45;94342.13;;;26.80;36.21
31337;BME280;22846;42.654;23.314;2022-08-02T02:03:18;94349.00;;;26.76;36.38
31337;BME280;22846;42.654;23.314;2022-08-02T02:05:46;94347.63;;;26.71;36.61
31337;BME280;22846;42.654;23.314;2022-08-02T02:08:13;94345.84;;;26.68;36.42
31337;BME280;22846;42.654;23.314;2022-08-02T02:10:41;94348.72;;;26.65;36.10
31337;BME280;22846;42.654;23.314;2022-08-02T02:13:13;94350.09;;;26.60;35.84
31337;BME280;22846;42.654;23.314;2022-08-02T02:15:43;94343.53;;;26.58;35.67
31337;BME280;22846;42.654;23.314;2022-08-02T02:18:16;94354.66;;;26.54;35.91
31337;BME280;22846;42.654;23.314;2022-08-02T02:20:42;94347.38;;;26.51;35.66
31337;BME280;22846;42.654;23.314;2022-08-02T02:23:09;94348.28;;;26.48;35.52
31337;BME280;22846;42.654;23.314;2022-08-02T02:25:35;94338.22;;;26.46;35.70
31337;BME280;22846;42.654;23.314;2022-08-02T02:28:04;94346.59;;;26.42;35.76
31337;BME280;22846;42.654;23.314;2022-08-02T02:30:30;94336.38;;;26.34;35.75
31337;BME280;22846;42.654;23.314;2022-08-02T02:32:58;94346.41;;;26.37;35.93
31337;BME280;22846;42.654;23.314;2022-08-02T02:35:28;94346.88;;;26.35;35.96
31337;BME280;22846;42.654;23.314;2022-08-02T02:37:55;94347.34;;;26.34;35.63
31337;BME280;22846;42.654;23.314;2022-08-02T02:40:24;94348.22;;;26.31;36.01
31337;BME280;22846;42.654;23.314;2022-08-02T02:42:51;94343.22;;;26.29;36.21
31337;BME280;22846;42.654;23.314;2022-08-02T02:45:19;94338.63;;;26.26;35.75
31337;BME280;22846;42.654;23.314;2022-08-02T02:47:46;94342.59;;;26.25;35.74
31337;BME280;22846;42.654;23.314;2022-08-02T02:50:15;94335.31;;;26.22;35.84
31337;BME280;22846;42.654;23.314;2022-08-02T02:52:41;94342.75;;;26.22;36.08
31337;BME280;22846;42.654;23.314;2022-08-02T02:55:08;94336.97;;;26.20;36.21
31337;BME280;22846;42.654;23.314;2022-08-02T02:57:36;94340.91;;;26.19;36.32
31337;BME280;22846;42.654;23.314;2022-08-02T03:00:10;94336.34;;;26.16;36.29
31337;BME280;22846;42.654;23.314;2022-08-02T03:02:38;94342.16;;;26.18;36.11
31337;BME280;22846;42.654;23.314;2022-08-02T03:05:08;94346.53;;;26.15;35.96
31337;BME280;22846;42.654;23.314;2022-08-02T03:07:34;94345.00;;;26.14;35.91
31337;BME280;22846;42.654;23.314;2022-08-02T03:10:03;94347.00;;;26.14;36.21
31337;BME280;22846;42.654;23.314;2022-08-02T03:12:29;94345.47;;;26.13;36.02
31337;BME280;22846;42.654;23.314;2022-08-02T03:14:57;94344.72;;;26.12;36.20
31337;BME280;22846;42.654;23.314;2022-08-02T03:17:22;94334.03;;;26.05;36.19
31337;BME280;22846;42.654;23.314;2022-08-02T03:19:48;94340.91;;;26.10;36.52
31337;BME280;22846;42.654;23.314;2022-08-02T03:22:13;94330.06;;;25.97;36.39
31337;BME280;22846;42.654;23.314;2022-08-02T03:24:39;94338.03;;;26.04;36.55
31337;BME280;22846;42.654;23.314;2022-08-02T03:27:04;94344.09;;;26.08;36.53
31337;BME280;22846;42.654;23.314;2022-08-02T03:29:30;94342.56;;;26.07;36.53
31337;BME280;22846;42.654;23.314;2022-08-02T03:31:56;94347.75;;;26.05;36.39
31337;BME280;22846;42.654;23.314;2022-08-02T03:34:22;94352.47;;;26.05;36.60
31337;BME280;22846;42.654;23.314;2022-08-02T03:36:49;94345.94;;;26.02;36.73
31337;BME280;22846;42.654;23.314;2022-08-02T03:39:18;94345.63;;;26.00;36.42
31337;BME280;22846;42.654;23.314;2022-08-02T03:41:45;94348.81;;;25.99;36.50
31337;BME280;22846;42.654;23.314;2022-08-02T03:44:11;94341.97;;;25.94;36.45
31337;BME280;22846;42.654;23.314;2022-08-02T03:46:38;94353.50;;;25.98;36.74
31337;BME280;22846;42.654;23.314;2022-08-02T03:49:05;94353.22;;;25.96;36.67
31337;BME280;22846;42.654;23.314;2022-08-02T03:51:33;94333.44;;;25.92;36.46
31337;BME280;22846;42.654;23.314;2022-08-02T03:53:59;94352.75;;;25.98;36.55
31337;BME280;22846;42.654;23.314;2022-08-02T03:56:26;94361.28;;;26.00;36.56
31337;BME280;22846;42.654;23.314;2022-08-02T03:59:05;94362.94;;;25.97;36.82
31337;BME280;22846;42.654;23.314;2022-08-02T04:01:30;94367.19;;;25.98;36.44
31337;BME280;22846;42.654;23.314;2022-08-02T04:03:56;94375.41;;;25.98;36.67
31337;BME280;22846;42.654;23.314;2022-08-02T04:06:21;94370.25;;;26.00;36.58
31337;BME280;22846;42.654;23.314;2022-08-02T04:08:47;94377.72;;;26.00;36.61
31337;BME280;22846;42.654;23.314;2022-08-02T04:11:12;94383.94;;;26.00;36.92
31337;BME280;22846;42.654;23.314;2022-08-02T04:14:05;94383.94;;;26.00;36.88
31337;BME280;22846;42.654;23.314;2022-08-02T04:19:14;94386.53;;;26.04;37.16
31337;BME280;22846;42.654;23.314;2022-08-02T04:21:42;94393.84;;;26.07;37.14
31337;BME280;22846;42.654;23.314;2022-08-02T04:24:09;94394.94;;;26.09;36.78
31337;BME280;22846;42.654;23.314;2022-08-02T04:26:36;94398.28;;;26.13;36.74
31337;BME280;22846;42.654;23.314;2022-08-02T04:29:02;94394.47;;;26.11;36.86
31337;BME280;22846;42.654;23.314;2022-08-02T04:31:28;94395.84;;;26.15;36.99
31337;BME280;22846;42.654;23.314;2022-08-02T04:33:54;94390.38;;;26.15;37.68
31337;BME280;22846;42.654;23.314;2022-08-02T04:36:20;94393.44;;;26.26;38.03
31337;BME280;22846;42.654;23.314;2022-08-02T04:38:48;94391.78;;;26.38;38.72
31337;BME280;22846;42.654;23.314;2022-08-02T04:41:14;94399.44;;;26.51;39.66
31337;BME280;22846;42.654;23.314;2022-08-02T04:43:39;94388.31;;;26.64;39.45
31337;BME280;22846;42.654;23.314;2022-08-02T04:46:05;94389.69;;;26.77;39.69
31337;BME280;22846;42.654;23.314;2022-08-02T04:48:30;94385.25;;;26.89;39.33
31337;BME280;22846;42.654;23.314;2022-08-02T04:50:56;94391.03;;;27.00;39.52
31337;BME280;22846;42.654;23.314;2022-08-02T04:53:21;94385.53;;;27.09;39.66
31337;BME280;22846;42.654;23.314;2022-08-02T04:55:47;94391.00;;;27.18;39.49
31337;BME280;22846;42.654;23.314;2022-08-02T04:58:13;94387.19;;;27.24;39.48
31337;BME280;22846;42.654;23.314;2022-08-02T05:00:38;94394.66;;;27.33;39.40
31337;BME280;22846;42.654;23.314;2022-08-02T05:03:04;94395.06;;;27.40;39.17
31337;BME280;22846;42.654;23.314;2022-08-02T05:05:30;94392.47;;;27.45;38.93
31337;BME280;22846;42.654;23.314;2022-08-02T05:07:55;94390.16;;;27.53;38.68
31337;BME280;22846;42.654;23.314;2022-08-02T05:10:21;94397.31;;;27.59;38.45
31337;BME280;22846;42.654;23.314;2022-08-02T05:12:47;94389.69;;;27.63;38.29
31337;BME280;22846;42.654;23.314;2022-08-02T05:15:13;94388.78;;;27.66;37.52
31337;BME280;22846;42.654;23.314;2022-08-02T05:17:41;94392.72;;;27.65;37.22
31337;BME280;22846;42.654;23.314;2022-08-02T05:20:07;94400.97;;;27.65;37.35
31337;BME280;22846;42.654;23.314;2022-08-02T05:22:32;94402.66;;;27.63;37.28
31337;BME280;22846;42.654;23.314;2022-08-02T05:24:58;94403.41;;;27.63;37.38
31337;BME280;22846;42.654;23.314;2022-08-02T05:27:23;94401.88;;;27.62;37.13
31337;BME280;22846;42.654;23.314;2022-08-02T05:29:49;94401.56;;;27.60;37.10
31337;BME280;22846;42.654;23.314;2022-08-02T05:32:16;94403.88;;;27.62;37.36
31337;BME280;22846;42.654;23.314;2022-08-02T05:34:42;94395.78;;;27.58;37.58
31337;BME280;22846;42.654;23.314;2022-08-02T05:37:07;94407.38;;;27.62;37.18
31337;BME280;22846;42.654;23.314;2022-08-02T05:39:33;94405.41;;;27.63;37.62
31337;BME280;22846;42.654;23.314;2022-08-02T05:41:58;94404.94;;;27.64;38.19
31337;BME280;22846;42.654;23.314;2022-08-02T05:44:23;94408.56;;;27.70;38.27
31337;BME280;22846;42.654;23.314;2022-08-02T05:46:49;94402.75;;;27.77;38.30
31337;BME280;22846;42.654;23.314;2022-08-02T05:49:14;94409.88;;;27.84;38.27
31337;BME280;22846;42.654;23.314;2022-08-02T05:52:10;94408.50;;;27.88;38.06
31337;BME280;22846;42.654;23.314;2022-08-02T06:00:11;94421.41;;;28.06;38.06
31337;BME280;22846;42.654;23.314;2022-08-02T06:03:03;94418.00;;;28.11;38.04
31337;BME280;22846;42.654;23.314;2022-08-02T06:05:38;94423.31;;;28.14;37.86
31337;BME280;22846;42.654;23.314;2022-08-02T06:08:06;94425.16;;;28.17;37.99
31337;BME280;22846;42.654;23.314;2022-08-02T06:10:35;94428.50;;;28.21;38.00
31337;BME280;22846;42.654;23.314;2022-08-02T06:13:10;94431.09;;;28.24;38.11
31337;BME280;22846;42.654;23.314;2022-08-02T06:15:37;94436.41;;;28.28;37.93
31337;BME280;22846;42.654;23.314;2022-08-02T06:18:03;94427.69;;;28.29;38.04
31337;BME280;22846;42.654;23.314;2022-08-02T06:20:29;94429.53;;;28.32;37.98
31337;BME280;22846;42.654;23.314;2022-08-02T06:23:00;94433.63;;;28.37;37.94
31337;BME280;22846;42.654;23.314;2022-08-02T06:25:28;94440.16;;;28.39;38.06
31337;BME280;22846;42.654;23.314;2022-08-02T06:27:54;94441.22;;;28.42;38.05
31337;BME280;22846;42.654;23.314;2022-08-02T06:30:20;94440.00;;;28.43;38.05
31337;BME280;22846;42.654;23.314;2022-08-02T06:32:50;94443.03;;;28.45;38.08
31337;BME280;22846;42.654;23.314;2022-08-02T06:35:15;94442.09;;;28.48;38.14
31337;BME280;22846;42.654;23.314;2022-08-02T06:37:50;94454.59;;;28.49;38.25
31337;BME280;22846;42.654;23.314;2022-08-02T06:40:35;94448.19;;;28.52;38.31
31337;BME280;22846;42.654;23.314;2022-08-02T06:43:16;94452.47;;;28.53;38.04
31337;BME280;22846;42.654;23.314;2022-08-02T06:45:42;94455.78;;;28.57;38.12
31337;BME280;22846;42.654;23.314;2022-08-02T06:48:09;94455.31;;;28.58;38.30
31337;BME280;22846;42.654;23.314;2022-08-02T06:50:35;94445.06;;;28.59;38.56
31337;BME280;22846;42.654;23.314;2022-08-02T06:53:07;94447.66;;;28.62;38.18
31337;BME280;22846;42.654;23.314;2022-08-02T06:55:32;94433.44;;;28.64;38.19
31337;BME280;22846;42.654;23.314;2022-08-02T06:57:58;94443.19;;;28.65;38.06
31337;BME280;22846;42.654;23.314;2022-08-02T07:00:24;94444.25;;;28.67;38.18
31337;BME280;22846;42.654;23.314;2022-08-02T07:02:50;94446.53;;;28.69;38.15
31337;BME280;22846;42.654;23.314;2022-08-02T07:05:15;94446.06;;;28.70;38.27
31337;BME280;22846;42.654;23.314;2022-08-02T07:07:41;94446.06;;;28.70;38.08
31337;BME280;22846;42.654;23.314;2022-08-02T07:10:07;94440.38;;;28.74;38.31
31337;BME280;22846;42.654;23.314;2022-08-02T07:12:33;94439.16;;;28.75;38.20
31337;BME280;22846;42.654;23.314;2022-08-02T07:15:01;94439.44;;;28.77;38.33
31337;BME280;22846;42.654;23.314;2022-08-02T07:17:27;94447.22;;;28.78;38.17
31337;BME280;22846;42.654;23.314;2022-08-02T07:19:53;94443.28;;;28.79;38.44
31337;BME280;22846;42.654;23.314;2022-08-02T07:22:19;94443.56;;;28.81;38.32
31337;BME280;22846;42.654;23.314;2022-08-02T07:24:47;94444.31;;;28.82;38.16
31337;BME280;22846;42.654;23.314;2022-08-02T07:27:12;94439.88;;;28.84;38.34
31337;BME280;22846;42.654;23.314;2022-08-02T07:29:38;94440.63;;;28.85;38.35
31337;BME280;22846;42.654;23.314;2022-08-02T07:32:05;94442.91;;;28.86;38.59
31337;BME280;22846;42.654;23.314;2022-08-02T07:34:30;94442.44;;;28.88;38.36
31337;BME280;22846;42.654;23.314;2022-08-02T07:36:55;94432.19;;;28.88;38.28
31337;BME280;22846;42.654;23.314;2022-08-02T07:39:21;94431.75;;;28.90;38.50
31337;BME280;22846;42.654;23.314;2022-08-02T07:41:46;94433.25;;;28.91;38.42
31337;BME280;22846;42.654;23.314;2022-08-02T07:44:15;94434.03;;;28.91;38.49
31337;BME280;22846;42.654;23.314;2022-08-02T07:46:41;94435.53;;;28.92;38.51
31337;BME280;22846;42.654;23.314;2022-08-02T07:49:07;94430.78;;;28.93;38.64
31337;BME280;22846;42.654;23.314;2022-08-02T07:51:32;94437.81;;;28.94;38.52
31337;BME280;22846;42.654;23.314;2022-08-02T07:54:00;94429.06;;;28.95;38.32
31337;BME280;22846;42.654;23.314;2022-08-02T07:56:25;94428.63;;;28.97;38.62
31337;BME280;22846;42.654;23.314;2022-08-02T07:58:51;94433.34;;;28.96;38.47
31337;BME280;22846;42.654;23.314;2022-08-02T08:01:16;94431.66;;;28.99;38.53
31337;BME280;22846;42.654;23.314;2022-08-02T08:03:42;94437.16;;;28.99;38.40
31337;BME280;22846;42.654;23.314;2022-08-02T08:06:08;94435.91;;;29.00;38.49
31337;BME280;22846;42.654;23.314;2022-08-02T08:08:33;94429.19;;;29.01;38.50
31337;BME280;22846;42.654;23.314;2022-08-02T08:10:59;94434.69;;;29.01;38.65
31337;BME280;22846;42.654;23.314;2022-08-02T08:13:24;94435.00;;;29.02;38.53
31337;BME280;22846;42.654;23.314;2022-08-02T08:15:50;94435.72;;;29.03;38.56
31337;BME280;22846;42.654;23.314;2022-08-02T08:18:15;94429.00;;;29.04;38.66
31337;BME280;22846;42.654;23.314;2022-08-02T08:20:41;94434.06;;;29.05;38.59
31337;BME280;22846;42.654;23.314;2022-08-02T08:23:06;94436.03;;;29.05;38.66
31337;BME280;22846;42.654;23.314;2022-08-02T08:25:32;94434.78;;;29.06;38.51
31337;BME280;22846;42.654;23.314;2022-08-02T08:27:58;94421.81;;;29.06;38.66
31337;BME280;22846;42.654;23.314;2022-08-02T08:30:23;94428.06;;;29.07;38.62
31337;BME280;22846;42.654;23.314;2022-08-02T08:32:49;94421.34;;;29.08;38.75
31337;BME280;22846;42.654;23.314;2022-08-02T08:35:15;94432.34;;;29.08;38.74
31337;BME280;22846;42.654;23.314;2022-08-02T08:37:40;94427.88;;;29.10;38.72
31337;BME280;22846;42.654;23.314;2022-08-02T08:40:09;94423.59;;;29.09;38.59
31337;BME280;22846;42.654;23.314;2022-08-02T08:42:37;94426.66;;;29.11;38.88
31337;BME280;22846;42.654;23.314;2022-08-02T08:45:03;94428.66;;;29.11;38.63
31337;BME280;22846;42.654;23.314;2022-08-02T08:47:39;94427.41;;;29.12;38.67
31337;BME280;22846;42.654;23.314;2022-08-02T08:50:10;94432.91;;;29.12;38.77
31337;BME280;22846;42.654;23.314;2022-08-02T08:52:41;94433.69;;;29.12;38.77
31337;BME280;22846;42.654;23.314;2022-08-02T08:55:09;94424.19;;;29.13;39.21
31337;BME280;22846;42.654;23.314;2022-08-02T08:57:39;94428.91;;;29.13;38.76
31337;BME280;22846;42.654;23.314;2022-08-02T09:00:05;94420.22;;;29.14;38.74
31337;BME280;22846;42.654;23.314;2022-08-02T09:02:33;94425.22;;;29.16;38.67
31337;BME280;22846;42.654;23.314;2022-08-02T09:05:00;94430.00;;;29.15;38.65
31337;BME280;22846;42.654;23.314;2022-08-02T09:07:26;94412.88;;;29.11;38.57
31337;BME280;22846;42.654;23.314;2022-08-02T09:09:52;94425.53;;;29.18;38.73
31337;BME280;22846;42.654;23.314;2022-08-02T09:12:18;94424.75;;;29.17;38.79
31337;BME280;22846;42.654;23.314;2022-08-02T09:14:46;94432.81;;;29.21;38.85
31337;BME280;22846;42.654;23.314;2022-08-02T09:17:12;94429.31;;;29.20;38.61
31337;BME280;22846;42.654;23.314;2022-08-02T09:19:39;94425.34;;;29.21;38.84
31337;BME280;22846;42.654;23.314;2022-08-02T09:22:11;94433.59;;;29.21;38.94
31337;BME280;22846;42.654;23.314;2022-08-02T09:24:48;94422.59;;;29.21;38.59
31337;BME280;22846;42.654;23.314;2022-08-02T09:27:19;94420.13;;;29.23;38.73
31337;BME280;22846;42.654;23.314;2022-08-02T09:29:46;94428.38;;;29.23;38.81
31337;BME280;22846;42.654;23.314;2022-08-02T09:32:12;94424.84;;;29.23;38.68
31337;BME280;22846;42.654;23.314;2022-08-02T09:34:53;94416.13;;;29.24;38.90
31337;BME280;22846;42.654;23.314;2022-08-02T09:37:27;94409.13;;;29.23;38.58
31337;BME280;22846;42.654;23.314;2022-08-02T09:39:53;94415.66;;;29.26;38.83
31337;BME280;22846;42.654;23.314;2022-08-02T09:42:19;94412.91;;;29.26;39.08
31337;BME280;22846;42.654;23.314;2022-08-02T09:44:55;94412.13;;;29.25;38.86
31337;BME280;22846;42.654;23.314;2022-08-02T09:47:23;94416.69;;;29.28;38.78
31337;BME280;22846;42.654;23.314;2022-08-02T09:49:49;94407.69;;;29.28;38.97
31337;BME280;22846;42.654;23.314;2022-08-02T09:52:21;94403.41;;;29.27;39.12
31337;BME280;22846;42.654;23.314;2022-08-02T09:54:46;94400.19;;;29.28;38.78
31337;BME280;22846;42.654;23.314;2022-08-02T09:57:24;94402.94;;;29.28;38.96
31337;BME280;22846;42.654;23.314;2022-08-02T09:59:54;94389.47;;;29.30;38.92
31337;BME280;22846;42.654;23.314;2022-08-02T10:02:20;94396.50;;;29.31;38.83
31337;BME280;22846;42.654;23.314;2022-08-02T10:04:45;94395.44;;;29.29;38.79
31337;BME280;22846;42.654;23.314;2022-08-02T10:07:11;94400.75;;;29.32;38.87
31337;BME280;22846;42.654;23.314;2022-08-02T10:09:37;94392.50;;;29.32;38.76
31337;BME280;22846;42.654;23.314;2022-08-02T10:12:03;94394.78;;;29.34;38.89
31337;BME280;22846;42.654;23.314;2022-08-02T10:14:28;94400.28;;;29.34;38.96
31337;BME280;22846;42.654;23.314;2022-08-02T10:16:55;94394.00;;;29.33;38.91
31337;BME280;22846;42.654;23.314;2022-08-02T10:19:21;94402.56;;;29.35;38.85
31337;BME280;22846;42.654;23.314;2022-08-02T10:22:00;94387.25;;;29.34;39.00
31337;BME280;22846;42.654;23.314;2022-08-02T10:24:28;94394.28;;;29.35;38.87
31337;BME280;22846;42.654;23.314;2022-08-02T10:26:54;94392.31;;;29.36;39.14
31337;BME280;22846;42.654;23.314;2022-08-02T10:29:29;94395.06;;;29.36;39.10
31337;BME280;22846;42.654;23.314;2022-08-02T10:31:58;94384.25;;;29.32;38.80
31337;BME280;22846;42.654;23.314;2022-08-02T10:37:10;94378.25;;;29.34;38.89
31337;BME280;22846;42.654;23.314;2022-08-02T10:39:41;94379.63;;;29.38;38.99
31337;BME280;22846;42.654;23.314;2022-08-02T10:42:08;94385.13;;;29.38;39.28
31337;BME280;22846;42.654;23.314;2022-08-02T10:44:35;94385.13;;;29.38;38.97
31337;BME280;22846;42.654;23.314;2022-08-02T10:49:59;94386.16;;;29.41;39.04
31337;BME280;22846;42.654;23.314;2022-08-02T10:52:26;94379.13;;;29.40;39.07
31337;BME280;22846;42.654;23.314;2022-08-02T10:54:57;94385.41;;;29.40;39.08
31337;BME280;22846;42.654;23.314;2022-08-02T10:57:24;94385.69;;;29.42;38.91
31337;BME280;22846;42.654;23.314;2022-08-02T10:59:54;94381.44;;;29.41;39.13
31337;BME280;22846;42.654;23.314;2022-08-02T11:05:05;94386.94;;;29.41;38.79
31337;BME280;22846;42.654;23.314;2022-08-02T11:07:36;94380.16;;;29.42;38.98
31337;BME280;22846;42.654;23.314;2022-08-02T11:13:02;94372.69;;;29.43;39.33
31337;BME280;22846;42.654;23.314;2022-08-02T11:15:29;94372.97;;;29.45;38.91
31337;BME280;22846;42.654;23.314;2022-08-02T11:17:58;94377.72;;;29.44;38.93
31337;BME280;22846;42.654;23.314;2022-08-02T11:20:25;94367.38;;;29.39;39.17
31337;BME280;22846;42.654;23.314;2022-08-02T11:22:52;94373.72;;;29.45;39.26
31337;BME280;22846;42.654;23.314;2022-08-02T11:27:49;94372.50;;;29.46;39.01
31337;BME280;22846;42.654;23.314;2022-08-02T11:30:15;94381.03;;;29.48;38.97
31337;BME280;22846;42.654;23.314;2022-08-02T11:32:41;94375.25;;;29.46;39.18
31337;BME280;22846;42.654;23.314;2022-08-02T11:35:07;94368.00;;;29.49;38.72
31337;BME280;22846;42.654;23.314;2022-08-02T11:37:35;94366.78;;;29.50;39.09
31337;BME280;22846;42.654;23.314;2022-08-02T11:40:09;94365.25;;;29.49;38.75
31337;BME280;22846;42.654;23.314;2022-08-02T11:42:39;94366.78;;;29.50;38.87
31337;BME280;22846;42.654;23.314;2022-08-02T11:45:07;94372.28;;;29.50;39.03
31337;BME280;22846;42.654;23.314;2022-08-02T11:47:46;94367.06;;;29.52;39.26
31337;BME280;22846;42.654;23.314;2022-08-02T11:50:13;94367.38;;;29.54;38.82
31337;BME280;22846;42.654;23.314;2022-08-02T11:52:38;94355.28;;;29.51;38.67
31337;BME280;22846;42.654;23.314;2022-08-02T11:55:07;94363.84;;;29.53;38.98
31337;BME280;22846;42.654;23.314;2022-08-02T11:57:34;94356.50;;;29.50;39.12
31337;BME280;22846;42.654;23.314;2022-08-02T11:59:59;94360.59;;;29.55;39.03
31337;BME280;22846;42.654;23.314;2022-08-02T12:02:27;94362.88;;;29.56;39.03
31337;BME280;22846;42.654;23.314;2022-08-02T12:04:57;94362.13;;;29.56;39.03
31337;BME280;22846;42.654;23.314;2022-08-02T12:07:30;94359.34;;;29.56;39.12
31337;BME280;22846;42.654;23.314;2022-08-02T12:10:00;94362.88;;;29.56;39.05
31337;BME280;22846;42.654;23.314;2022-08-02T12:12:26;94356.59;;;29.56;39.31
31337;BME280;22846;42.654;23.314;2022-08-02T12:14:52;94362.41;;;29.58;39.10
31337;BME280;22846;42.654;23.314;2022-08-02T12:17:25;94353.84;;;29.56;39.25
31337;BME280;22846;42.654;23.314;2022-08-02T12:20:10;94361.66;;;29.57;39.29
31337;BME280;22846;42.654;23.314;2022-08-02T12:22:37;94361.38;;;29.55;39.37
31337;BME280;22846;42.654;23.314;2022-08-02T12:25:18;94364.41;;;29.57;39.20
31337;BME280;22846;42.654;23.314;2022-08-02T12:27:46;94362.41;;;29.58;39.32
31337;BME280;22846;42.654;23.314;2022-08-02T12:30:17;94360.13;;;29.56;39.52
31337;BME280;22846;42.654;23.314;2022-08-02T12:32:43;94354.34;;;29.54;39.26
31337;BME280;22846;42.654;23.314;2022-08-02T12:35:13;94360.44;;;29.58;39.44
31337;BME280;22846;42.654;23.314;2022-08-02T12:37:43;94363.19;;;29.58;39.45
31337;BME280;22846;42.654;23.314;2022-08-02T12:40:27;94361.91;;;29.59;39.47
31337;BME280;22846;42.654;23.314;2022-08-02T12:42:56;94366.19;;;29.60;39.46
31337;BME280;22846;42.654;23.314;2022-08-02T12:45:24;94363.44;;;29.60;39.54
31337;BME280;22846;42.654;23.314;2022-08-02T12:47:57;94364.22;;;29.61;39.65
31337;BME280;22846;42.654;23.314;2022-08-02T12:50:25;94366.47;;;29.62;39.33
31337;BME280;22846;42.654;23.314;2022-08-02T12:53:06;94359.44;;;29.61;39.66
31337;BME280;22846;42.654;23.314;2022-08-02T12:55:31;94356.25;;;29.63;39.72
31337;BME280;22846;42.654;23.314;2022-08-02T12:58:02;94358.22;;;29.62;39.46
31337;BME280;22846;42.654;23.314;2022-08-02T13:00:31;94357.00;;;29.63;39.63
31337;BME280;22846;42.654;23.314;2022-08-02T13:02:58;94350.72;;;29.63;39.71
31337;BME280;22846;42.654;23.314;2022-08-02T13:05:25;94356.25;;;29.63;39.67
31337;BME280;22846;42.654;23.314;2022-08-02T13:07:51;94349.47;;;29.64;39.57
31337;BME280;22846;42.654;23.314;2022-08-02T13:10:17;94350.72;;;29.63;39.67
31337;BME280;22846;42.654;23.314;2022-08-02T13:12:43;94351.47;;;29.63;39.83
31337;BME280;22846;42.654;23.314;2022-08-02T13:15:09;94359.75;;;29.63;39.74
31337;BME280;22846;42.654;23.314;2022-08-02T13:17:36;94349.00;;;29.65;39.80
31337;BME280;22846;42.654;23.314;2022-08-02T13:20:03;94346.91;;;29.60;39.72
31337;BME280;22846;42.654;23.314;2022-08-02T13:22:29;94360.03;;;29.65;39.85